DENVER INTL

KDEN (DEN)
Denver, Colorado
Towered

Vatsim Metar:
KDEN 210953Z 17011KT 10SM SCT250 03/M02 A2996 RMK AO2 SLP113 T00281022

SIDs

STARS

Alternate Minimums

Hot Spots